Time;durP1;ratioP1;P1;durP2;ratioP2;P2;SDS_P1;SDS_P2;PMS_P1;PMS_P2;Temp;Humidity;BMP_temperature;BMP_pressure;BME280_temperature;BME280_humidity;BME280_pressure;Samples;Min_cycle;Max_cycle;Signal;HPM_P1;HPM_P2
2022/07/12 00:02:01;;;;;;;1.20;1.10;;;13.40;99.90;;;;;;5068057;28;20121;-79
2022/07/12 00:04:27;;;;;;;1.60;1.00;;;13.30;99.90;;;;;;5062596;28;20124;-78
2022/07/12 00:06:53;;;;;;;1.50;1.40;;;13.30;99.90;;;;;;5045401;28;20494;-79
2022/07/12 00:09:20;;;;;;;1.20;1.10;;;13.30;99.90;;;;;;5062783;28;20058;-78
2022/07/12 00:11:46;;;;;;;2.53;1.17;;;13.20;99.90;;;;;;5079096;28;20052;-78
2022/07/12 00:14:12;;;;;;;1.63;1.33;;;13.10;99.90;;;;;;5079576;28;20564;-78
2022/07/12 00:16:37;;;;;;;2.10;1.70;;;13.10;99.90;;;;;;5079715;28;20044;-79
2022/07/12 00:19:03;;;;;;;1.27;1.17;;;13.20;99.90;;;;;;5063801;28;20464;-78
2022/07/12 00:21:29;;;;;;;2.90;1.33;;;13.10;99.90;;;;;;5080189;28;20055;-78
2022/07/12 00:23:55;;;;;;;2.30;1.80;;;13.20;99.90;;;;;;5095929;28;20044;-78
2022/07/12 00:26:22;;;;;;;2.70;1.50;;;13.10;99.90;;;;;;5078340;28;20048;-78
2022/07/12 00:28:48;;;;;;;1.00;0.90;;;13.10;99.90;;;;;;5061722;28;20040;-78
2022/07/12 00:31:14;;;;;;;3.27;1.30;;;13.10;99.90;;;;;;5078005;28;20572;-78
2022/07/12 00:33:40;;;;;;;4.57;1.73;;;13.10;99.90;;;;;;5090075;28;20061;-78
2022/07/12 00:36:06;;;;;;;3.93;1.87;;;13.00;99.90;;;;;;5059733;28;20491;-78
2022/07/12 00:38:32;;;;;;;2.30;1.30;;;13.00;99.90;;;;;;5061523;28;20075;-78
2022/07/12 00:40:57;;;;;;;2.73;1.43;;;13.00;99.90;;;;;;5056151;28;20083;-78
2022/07/12 00:43:26;;;;;;;4.10;2.00;;;13.00;99.90;;;;;;5076383;28;20045;-78
2022/07/12 00:45:52;;;;;;;1.87;1.30;;;13.00;99.90;;;;;;5073495;28;20545;-78
2022/07/12 00:48:18;;;;;;;1.90;1.10;;;12.90;99.90;;;;;;5066887;28;20040;-78
2022/07/12 00:50:44;;;;;;;3.33;2.00;;;12.90;99.90;;;;;;5071997;28;20067;-78
2022/07/12 00:53:10;;;;;;;3.17;2.30;;;12.90;99.90;;;;;;5062287;28;20131;-78
2022/07/12 00:55:36;;;;;;;4.47;2.17;;;12.90;99.90;;;;;;5058364;28;20478;-78
2022/07/12 00:58:02;;;;;;;1.43;1.33;;;12.90;99.90;;;;;;5059148;28;20058;-78
2022/07/12 01:00:29;;;;;;;2.83;1.83;;;12.80;99.90;;;;;;5044460;28;20082;-78
2022/07/12 01:02:56;;;;;;;2.50;1.50;;;12.80;99.90;;;;;;5077763;28;20048;-77
2022/07/12 01:05:23;;;;;;;1.30;1.20;;;12.80;99.90;;;;;;5076092;28;20071;-78
2022/07/12 01:07:49;;;;;;;1.60;1.10;;;12.80;99.90;;;;;;5084352;28;20123;-78
2022/07/12 01:10:15;;;;;;;1.73;1.00;;;12.80;99.90;;;;;;5062033;28;20046;-78
2022/07/12 01:12:41;;;;;;;1.63;0.80;;;12.80;99.90;;;;;;5077310;28;20082;-78
2022/07/12 01:15:08;;;;;;;1.43;1.20;;;12.70;99.90;;;;;;5077259;28;20475;-78
2022/07/12 01:17:36;;;;;;;4.23;2.33;;;12.70;99.90;;;;;;5077850;28;20097;-78
2022/07/12 01:20:05;;;;;;;6.57;2.20;;;12.70;99.90;;;;;;5076067;28;20073;-78
2022/07/12 01:22:33;;;;;;;4.73;1.83;;;12.70;99.90;;;;;;5052811;28;20036;-78
2022/07/12 01:25:02;;;;;;;3.40;1.90;;;12.60;99.90;;;;;;5077574;28;20499;-78
2022/07/12 01:27:29;;;;;;;2.33;1.60;;;12.70;99.90;;;;;;5077160;28;20082;-78
2022/07/12 01:29:55;;;;;;;1.93;1.30;;;12.60;99.90;;;;;;5060772;28;20047;-78
2022/07/12 01:32:24;;;;;;;2.57;1.40;;;12.60;99.90;;;;;;5078019;28;20445;-78
2022/07/12 01:34:51;;;;;;;2.43;1.70;;;12.60;99.90;;;;;;5094542;28;20044;-78
2022/07/12 01:37:18;;;;;;;4.10;1.37;;;12.60;99.90;;;;;;5075714;28;20097;-78
2022/07/12 01:39:44;;;;;;;5.80;2.00;;;12.60;99.90;;;;;;5056375;28;20044;-78
2022/07/12 01:42:12;;;;;;;3.10;1.40;;;12.50;99.90;;;;;;5073641;28;20091;-78
2022/07/12 01:44:38;;;;;;;3.57;1.40;;;12.50;99.90;;;;;;5072768;28;20062;-77
2022/07/12 01:47:04;;;;;;;3.67;1.60;;;12.50;99.90;;;;;;5072368;28;20040;-78
2022/07/12 01:49:30;;;;;;;4.50;1.97;;;12.50;99.90;;;;;;5073886;28;20051;-78
2022/07/12 01:51:55;;;;;;;2.27;1.60;;;12.40;99.90;;;;;;5074032;28;20048;-78
2022/07/12 01:54:21;;;;;;;1.70;1.37;;;12.40;99.90;;;;;;5069796;28;20425;-78
2022/07/12 01:56:47;;;;;;;3.80;1.60;;;12.40;99.90;;;;;;5081602;28;20048;-78
2022/07/12 01:59:14;;;;;;;2.10;1.60;;;12.40;99.90;;;;;;5084524;28;20048;-78
2022/07/12 02:01:40;;;;;;;2.27;1.43;;;12.30;99.90;;;;;;5074609;28;20052;-78
2022/07/12 02:04:07;;;;;;;3.87;1.67;;;12.30;99.90;;;;;;5058209;28;20109;-78
2022/07/12 02:06:33;;;;;;;1.93;1.30;;;12.30;99.90;;;;;;5075695;28;20048;-78
2022/07/12 02:08:59;;;;;;;1.27;1.17;;;12.30;99.90;;;;;;5074220;28;20105;-78
2022/07/12 02:11:25;;;;;;;2.20;1.63;;;12.20;99.90;;;;;;5067181;28;20491;-78
2022/07/12 02:13:50;;;;;;;2.70;1.90;;;12.20;99.90;;;;;;5075613;28;20495;-78
2022/07/12 02:16:18;;;;;;;2.83;1.50;;;12.20;99.90;;;;;;5091632;28;20044;-78
2022/07/12 02:18:44;;;;;;;2.17;1.70;;;12.20;99.90;;;;;;5092146;28;20058;-78
2022/07/12 02:21:10;;;;;;;2.63;2.20;;;12.20;99.90;;;;;;5092229;28;20111;-78
2022/07/12 02:23:36;;;;;;;6.17;1.90;;;12.10;99.90;;;;;;5075373;28;20040;-78
2022/07/12 02:26:01;;;;;;;4.37;1.67;;;12.10;99.90;;;;;;5066472;28;20051;-77
2022/07/12 02:28:27;;;;;;;3.30;2.20;;;12.10;99.90;;;;;;5067876;28;20315;-78
2022/07/12 02:30:53;;;;;;;3.00;1.70;;;12.10;99.90;;;;;;5075636;28;20067;-78
2022/07/12 02:33:20;;;;;;;3.90;2.33;;;12.10;99.90;;;;;;5042708;28;20130;-78
2022/07/12 02:35:45;;;;;;;4.90;2.33;;;12.10;99.90;;;;;;5091708;28;20105;-78
2022/07/12 02:38:11;;;;;;;3.63;2.73;;;12.10;99.90;;;;;;5074859;28;20494;-78
2022/07/12 02:40:55;;;;;;;6.10;2.67;;;12.00;99.90;;;;;;5075022;28;20071;-78
2022/07/12 02:43:21;;;;;;;6.40;2.20;;;12.00;99.90;;;;;;5082761;28;20121;-78
2022/07/12 02:45:47;;;;;;;3.57;2.50;;;12.00;99.90;;;;;;5074083;28;20051;-78
2022/07/12 02:48:13;;;;;;;3.93;1.90;;;12.00;99.90;;;;;;5091207;28;20040;-78
2022/07/12 02:50:40;;;;;;;3.40;1.93;;;12.00;99.90;;;;;;5074190;28;20426;-78
2022/07/12 02:53:07;;;;;;;3.67;1.97;;;11.90;99.90;;;;;;5074736;28;20414;-77
2022/07/12 02:55:33;;;;;;;3.17;1.83;;;11.90;99.90;;;;;;5073849;28;20043;-78
2022/07/12 02:57:58;;;;;;;4.50;2.17;;;11.90;99.90;;;;;;5065720;28;20043;-78
2022/07/12 03:00:24;;;;;;;3.83;2.33;;;11.90;99.90;;;;;;5082873;28;20044;-78
2022/07/12 03:02:50;;;;;;;4.90;2.97;;;11.90;99.90;;;;;;5091300;28;20419;-78
2022/07/12 03:05:16;;;;;;;3.20;2.43;;;11.90;99.90;;;;;;5090804;28;20423;-77
2022/07/12 03:07:43;;;;;;;4.43;3.13;;;11.90;99.90;;;;;;5073925;28;20044;-78
2022/07/12 03:10:09;;;;;;;8.50;3.13;;;11.90;99.90;;;;;;5091380;28;20491;-78
2022/07/12 03:12:34;;;;;;;4.33;2.80;;;11.90;99.90;;;;;;5091085;28;20105;-78
2022/07/12 03:15:01;;;;;;;5.47;3.03;;;11.90;99.90;;;;;;5082446;28;20555;-78
2022/07/12 03:17:26;;;;;;;4.80;3.03;;;11.80;99.90;;;;;;5066707;28;20043;-78
2022/07/12 03:19:52;;;;;;;5.03;3.40;;;11.80;99.90;;;;;;5073830;28;20056;-77
2022/07/12 03:22:18;;;;;;;3.87;2.60;;;11.80;99.90;;;;;;5090549;28;20075;-78
2022/07/12 03:24:45;;;;;;;3.80;2.30;;;11.80;99.90;;;;;;5073703;28;20048;-77
2022/07/12 03:27:11;;;;;;;3.60;2.30;;;11.80;99.90;;;;;;5090395;28;20048;-78
2022/07/12 03:29:36;;;;;;;4.77;2.20;;;11.80;99.90;;;;;;5073656;28;20109;-77
2022/07/12 03:32:03;;;;;;;5.40;2.73;;;11.70;99.90;;;;;;5063949;28;20059;-77
2022/07/12 03:34:28;;;;;;;3.73;2.50;;;11.70;99.90;;;;;;5065604;28;20044;-77
2022/07/12 03:36:54;;;;;;;7.30;2.77;;;11.70;99.90;;;;;;5073527;28;20517;-78
2022/07/12 03:39:20;;;;;;;3.03;2.73;;;11.60;99.90;;;;;;5090310;28;20052;-77
2022/07/12 03:41:47;;;;;;;3.90;2.50;;;11.60;99.90;;;;;;5073301;28;20072;-77
2022/07/12 03:44:13;;;;;;;2.80;2.50;;;11.60;99.90;;;;;;5056825;28;20090;-77
2022/07/12 03:46:38;;;;;;;43.30;3.37;;;11.60;99.90;;;;;;5088369;28;20063;-77
2022/07/12 03:49:05;;;;;;;18.13;2.90;;;11.60;99.90;;;;;;5061654;28;20045;-77
2022/07/12 03:51:31;;;;;;;41.33;3.40;;;11.50;99.90;;;;;;5053274;28;20037;-77
2022/07/12 03:53:56;;;;;;;15.53;3.23;;;11.50;99.90;;;;;;5053158;28;20041;-77
2022/07/12 03:59:08;;;;;;;20.53;3.50;;;11.50;99.90;;;;;;5056730;28;20047;-77
2022/07/12 04:01:34;;;;;;;4.03;2.57;;;11.50;99.90;;;;;;5089900;28;20043;-77
2022/07/12 04:04:00;;;;;;;4.60;2.60;;;11.60;99.90;;;;;;5065451;28;20052;-78
2022/07/12 04:06:25;;;;;;;2.80;2.60;;;11.60;99.90;;;;;;5037829;28;20036;-77
2022/07/12 04:08:51;;;;;;;3.33;2.70;;;11.60;99.90;;;;;;5053313;28;20135;-77
2022/07/12 04:11:17;;;;;;;4.00;3.13;;;11.60;99.90;;;;;;5036394;28;20076;-77
2022/07/12 04:13:42;;;;;;;4.37;2.70;;;11.70;99.90;;;;;;5070166;28;20044;-77
2022/07/12 04:16:10;;;;;;;3.57;3.20;;;11.70;99.90;;;;;;5036122;28;20052;-77
2022/07/12 04:18:35;;;;;;;5.07;2.90;;;11.70;99.90;;;;;;5052907;28;20123;-77
2022/07/12 04:21:01;;;;;;;6.00;3.37;;;11.80;99.90;;;;;;5077348;28;20151;-77
2022/07/12 04:23:27;;;;;;;4.10;2.57;;;11.80;99.90;;;;;;5086305;28;20399;-77
2022/07/12 04:25:52;;;;;;;3.60;2.87;;;11.80;99.90;;;;;;5093103;28;20459;-77
2022/07/12 04:28:18;;;;;;;3.17;2.77;;;11.80;99.90;;;;;;5093344;28;20040;-77
2022/07/12 04:30:45;;;;;;;6.33;2.87;;;11.80;99.90;;;;;;5076916;28;20059;-77
2022/07/12 04:33:14;;;;;;;5.13;2.70;;;11.90;99.90;;;;;;5076405;28;20071;-77
2022/07/12 04:35:39;;;;;;;3.33;2.67;;;11.90;99.90;;;;;;5086283;28;20094;-77
2022/07/12 04:38:07;;;;;;;5.37;2.90;;;11.90;99.90;;;;;;5066075;28;20049;-77
2022/07/12 04:40:32;;;;;;;4.90;3.00;;;11.90;99.90;;;;;;5076342;28;20048;-77
2022/07/12 04:42:58;;;;;;;5.57;2.90;;;11.90;99.90;;;;;;5076510;28;20135;-77
2022/07/12 04:45:24;;;;;;;3.47;2.53;;;12.00;99.90;;;;;;5042847;28;20070;-77
2022/07/12 04:47:49;;;;;;;4.80;2.90;;;12.00;99.90;;;;;;5075882;28;20044;-77
2022/07/12 04:50:17;;;;;;;3.97;2.60;;;12.00;99.90;;;;;;5043154;28;20602;-77
2022/07/12 04:52:42;;;;;;;3.40;2.73;;;12.10;99.90;;;;;;5061206;28;20113;-77
2022/07/12 04:55:09;;;;;;;5.20;2.93;;;12.10;99.90;;;;;;5068829;28;20290;-77
2022/07/12 04:57:35;;;;;;;5.20;3.10;;;12.10;99.90;;;;;;5058970;28;20052;-77
2022/07/12 05:00:00;;;;;;;4.00;3.00;;;12.20;99.90;;;;;;5056470;28;20046;-77
2022/07/12 05:02:26;;;;;;;3.40;2.87;;;12.30;99.90;;;;;;5075154;28;20071;-77
2022/07/12 05:04:52;;;;;;;3.27;2.63;;;12.30;99.90;;;;;;5092638;28;20578;-77
2022/07/12 05:07:19;;;;;;;2.97;2.53;;;12.40;99.90;;;;;;5075397;28;20048;-77
2022/07/12 05:09:45;;;;;;;4.43;3.60;;;12.40;99.90;;;;;;5066602;28;20119;-77
2022/07/12 05:12:11;;;;;;;5.60;3.73;;;12.60;99.90;;;;;;5060310;28;20132;-77
2022/07/12 05:14:37;;;;;;;6.80;5.17;;;12.70;99.90;;;;;;5058810;28;20040;-77
2022/07/12 05:17:03;;;;;;;8.77;5.00;;;12.70;99.90;;;;;;5058570;28;20059;-77
2022/07/12 05:19:29;;;;;;;10.70;7.33;;;12.80;99.90;;;;;;5075430;28;20044;-77
2022/07/12 05:21:54;;;;;;;8.73;6.93;;;13.00;99.90;;;;;;5063785;28;20122;-77
2022/07/12 05:24:21;;;;;;;7.73;6.30;;;13.10;99.90;;;;;;5073551;28;20048;-77
2022/07/12 05:26:48;;;;;;;9.27;5.77;;;13.30;99.90;;;;;;5066809;28;20121;-77
2022/07/12 05:29:14;;;;;;;9.83;7.93;;;13.40;99.90;;;;;;5059384;28;20449;-77
2022/07/12 05:31:39;;;;;;;7.67;6.10;;;13.50;99.90;;;;;;5058772;28;20044;-77
2022/07/12 05:34:05;;;;;;;10.10;7.50;;;13.60;99.90;;;;;;5092197;28;20040;-77
2022/07/12 05:36:31;;;;;;;6.63;5.53;;;13.80;99.90;;;;;;5074879;28;20048;-77
2022/07/12 05:38:57;;;;;;;8.13;6.10;;;13.90;99.90;;;;;;5075505;28;20044;-77
2022/07/12 05:41:24;;;;;;;11.30;8.20;;;14.00;99.90;;;;;;5057819;28;20130;-77
2022/07/12 05:43:49;;;;;;;11.37;7.27;;;14.10;99.90;;;;;;5069183;28;20044;-78
2022/07/12 05:46:15;;;;;;;12.03;8.93;;;14.30;99.90;;;;;;5042271;28;20097;-78
2022/07/12 05:48:41;;;;;;;12.33;9.00;;;14.40;99.90;;;;;;5060149;28;20410;-78
2022/07/12 05:53:51;;;;;;;11.73;9.45;;;14.80;99.90;;;;;;5079141;28;20119;-78
2022/07/12 05:56:16;;;;;;;12.53;9.70;;;15.00;99.90;;;;;;5067987;28;20123;-78
2022/07/12 05:58:44;;;;;;;10.57;9.07;;;15.10;99.90;;;;;;5093383;28;20047;-78
2022/07/12 06:01:09;;;;;;;11.27;10.07;;;15.30;99.90;;;;;;5067967;28;20052;-79
2022/07/12 06:03:35;;;;;;;10.67;9.47;;;15.50;99.90;;;;;;5071224;28;20128;-79
2022/07/12 06:06:01;;;;;;;13.13;9.43;;;15.70;99.90;;;;;;5071822;28;20148;-79
2022/07/12 06:08:27;;;;;;;9.77;8.70;;;15.80;99.90;;;;;;5075871;28;20067;-78
2022/07/12 06:10:53;;;;;;;12.30;9.30;;;15.90;99.90;;;;;;5075622;28;20135;-78
2022/07/12 06:13:19;;;;;;;11.67;7.87;;;16.10;99.90;;;;;;5059175;28;20067;-79
2022/07/12 06:15:46;;;;;;;9.40;8.27;;;16.20;99.90;;;;;;5058593;28;20407;-78
2022/07/12 06:18:12;;;;;;;9.30;7.87;;;16.30;99.90;;;;;;5083714;28;20068;-79
2022/07/12 06:20:37;;;;;;;8.47;7.67;;;16.40;99.90;;;;;;5075886;28;20525;-79
2022/07/12 06:23:03;;;;;;;9.37;8.13;;;16.50;99.90;;;;;;5059325;28;20134;-79
2022/07/12 06:25:29;;;;;;;9.27;7.93;;;16.60;99.90;;;;;;5092458;28;20075;-79
2022/07/12 06:27:55;;;;;;;9.13;7.80;;;16.70;99.90;;;;;;5092669;28;20089;-79
2022/07/12 06:30:21;;;;;;;7.57;6.87;;;16.80;99.90;;;;;;5075664;28;20043;-79
2022/07/12 06:32:49;;;;;;;8.60;7.70;;;16.80;99.90;;;;;;5074320;28;20036;-79
2022/07/12 06:35:15;;;;;;;7.97;7.23;;;16.90;99.90;;;;;;5068998;28;20048;-80
2022/07/12 06:37:41;;;;;;;10.60;7.40;;;16.90;99.90;;;;;;5059224;28;20487;-79
2022/07/12 06:40:08;;;;;;;7.73;6.93;;;17.00;99.90;;;;;;5075282;28;20388;-79
2022/07/12 06:42:34;;;;;;;7.43;6.73;;;17.00;99.90;;;;;;5075061;28;20605;-79
2022/07/12 06:45:00;;;;;;;7.73;6.93;;;17.10;99.90;;;;;;5075009;28;20059;-79
2022/07/12 06:47:26;;;;;;;6.97;6.30;;;17.10;99.90;;;;;;5075386;28;20044;-80
2022/07/12 06:49:53;;;;;;;7.67;6.57;;;17.20;99.90;;;;;;5069560;28;20127;-79
2022/07/12 06:52:19;;;;;;;7.93;6.37;;;17.30;99.90;;;;;;5049286;28;20407;-79
2022/07/12 06:54:45;;;;;;;7.30;6.60;;;17.30;99.90;;;;;;5084356;28;20048;-79
2022/07/12 06:57:11;;;;;;;7.93;6.30;;;17.40;99.90;;;;;;5083227;28;20043;-79
2022/07/12 06:59:36;;;;;;;7.67;6.73;;;17.50;99.90;;;;;;5092353;28;20131;-79
2022/07/12 07:02:04;;;;;;;7.63;6.37;;;17.50;99.90;;;;;;5084084;28;20471;-78
2022/07/12 07:04:30;;;;;;;7.10;5.83;;;17.60;99.90;;;;;;5063207;28;20036;-78
2022/07/12 07:06:57;;;;;;;6.20;5.70;;;17.60;99.90;;;;;;5081454;28;20044;-79
2022/07/12 07:09:22;;;;;;;5.73;5.13;;;17.60;99.90;;;;;;5081106;28;20052;-78
2022/07/12 07:11:48;;;;;;;6.77;5.40;;;17.60;99.90;;;;;;5070136;28;20105;-78
2022/07/12 07:14:14;;;;;;;6.20;5.60;;;17.80;99.90;;;;;;5065551;28;20054;-78
2022/07/12 07:16:40;;;;;;;7.63;5.23;;;17.90;99.90;;;;;;5077116;28;20063;-78
2022/07/12 07:19:05;;;;;;;7.17;6.13;;;18.00;99.90;;;;;;5078849;28;20048;-78
2022/07/12 07:21:31;;;;;;;6.63;5.87;;;18.00;99.90;;;;;;5087592;28;20093;-78
2022/07/12 07:23:58;;;;;;;6.20;5.30;;;18.10;99.90;;;;;;5070097;28;20041;-78
2022/07/12 07:26:24;;;;;;;6.00;5.27;;;18.10;99.90;;;;;;5078524;28;20071;-78
2022/07/12 07:31:34;;;;;;;;;;;18.00;99.90;;;;;;5066128;28;20046;-79
2022/07/12 07:33:59;;;;;;;5.80;5.30;;;18.10;99.90;;;;;;5066946;28;19919;-80
2022/07/12 07:36:26;;;;;;;7.30;5.97;;;18.10;99.90;;;;;;5057437;28;20043;-78
2022/07/12 07:38:52;;;;;;;5.63;5.13;;;18.20;99.90;;;;;;5088551;28;20044;-79
2022/07/12 07:41:19;;;;;;;6.10;5.50;;;18.20;99.90;;;;;;5055754;28;20048;-78
2022/07/12 07:43:46;;;;;;;6.53;5.73;;;18.30;99.90;;;;;;5067938;28;20056;-79
2022/07/12 07:46:11;;;;;;;6.23;5.60;;;18.40;99.90;;;;;;5071274;28;20044;-81
2022/07/12 07:48:37;;;;;;;5.80;5.30;;;18.50;99.90;;;;;;5056967;28;20070;-77
2022/07/12 07:51:03;;;;;;;5.80;5.30;;;18.70;99.90;;;;;;5084378;28;20103;-79
2022/07/12 07:53:29;;;;;;;7.90;5.50;;;18.80;99.90;;;;;;5068019;28;20034;-78
2022/07/12 07:55:55;;;;;;;5.67;4.80;;;18.90;99.90;;;;;;5084130;28;20048;-78
2022/07/12 07:58:22;;;;;;;5.37;4.87;;;19.00;99.90;;;;;;5087373;28;20119;-79
2022/07/12 08:00:49;;;;;;;5.10;4.60;;;19.10;99.90;;;;;;5068962;28;20384;-80
2022/07/12 08:03:15;;;;;;;5.90;5.30;;;19.20;99.90;;;;;;5062718;28;20050;-79
2022/07/12 08:05:41;;;;;;;7.13;4.80;;;19.40;99.90;;;;;;5065917;28;20138;-79
2022/07/12 08:08:06;;;;;;;5.23;4.73;;;19.40;99.90;;;;;;5084201;28;20044;-79
2022/07/12 08:10:33;;;;;;;5.63;5.13;;;19.40;99.90;;;;;;5069788;28;20036;-80
2022/07/12 08:12:59;;;;;;;4.93;4.40;;;19.60;99.90;;;;;;5066921;28;20032;-79
2022/07/12 08:15:27;;;;;;;5.23;4.83;;;19.70;99.90;;;;;;5069155;28;20044;-80
2022/07/12 08:17:52;;;;;;;5.53;5.03;;;19.80;99.90;;;;;;5068342;28;20055;-80
2022/07/12 08:20:19;;;;;;;6.00;4.80;;;19.90;99.90;;;;;;5063175;28;20418;-78
2022/07/12 08:22:45;;;;;;;5.27;4.87;;;19.90;99.90;;;;;;5070050;28;20144;-79
2022/07/12 08:25:11;;;;;;;4.60;4.20;;;20.10;99.90;;;;;;5085472;28;20155;-79
2022/07/12 08:27:37;;;;;;;5.07;4.53;;;20.20;99.90;;;;;;5083009;28;20122;-78
2022/07/12 08:30:03;;;;;;;5.50;4.70;;;20.30;99.90;;;;;;5050422;28;20031;-77
2022/07/12 08:32:30;;;;;;;5.23;4.73;;;20.40;99.90;;;;;;5083915;28;20529;-78
2022/07/12 08:34:56;;;;;;;4.60;4.20;;;20.60;99.90;;;;;;5080911;28;20539;-77
2022/07/12 08:37:22;;;;;;;5.03;4.30;;;20.70;99.90;;;;;;5062854;28;20071;-78
2022/07/12 08:39:48;;;;;;;5.90;4.40;;;20.80;99.90;;;;;;5058071;28;20162;-80
2022/07/12 08:42:15;;;;;;;4.88;4.38;;;20.90;99.90;;;;;;5085767;28;20417;-77
2022/07/12 08:44:41;;;;;;;4.43;4.03;;;21.00;99.90;;;;;;5083947;28;20044;-79
2022/07/12 08:47:07;;;;;;;5.83;4.00;;;21.10;99.90;;;;;;5054005;28;20042;-79
2022/07/12 08:49:35;;;;;;;4.37;3.97;;;21.20;99.90;;;;;;5067450;28;20032;-79
2022/07/12 08:52:19;;;;;;;4.55;3.97;;;21.30;99.90;;;;;;5085430;28;20652;-79
2022/07/12 08:54:45;;;;;;;4.50;4.10;;;21.50;99.90;;;;;;5069561;28;20040;-80
2022/07/12 08:57:11;;;;;;;4.30;3.90;;;21.50;99.90;;;;;;5062949;28;20563;-79
2022/07/12 08:59:37;;;;;;;5.60;3.90;;;21.70;99.90;;;;;;5085979;28;20043;-79
2022/07/12 09:02:03;;;;;;;6.53;5.10;;;21.80;99.90;;;;;;5065961;28;20036;-79
2022/07/12 09:04:29;;;;;;;4.57;4.18;;;21.90;99.90;;;;;;5065576;28;20385;-80
2022/07/12 09:06:56;;;;;;;5.22;4.60;;;21.90;99.90;;;;;;5058642;28;20059;-81
2022/07/12 09:09:27;;;;;;;5.65;3.97;;;22.00;99.90;;;;;;5061528;28;20045;-80
2022/07/12 09:11:53;;;;;;;5.78;4.32;;;22.00;99.90;;;;;;5083177;28;20043;-79
2022/07/12 09:14:20;;;;;;;4.90;4.50;;;22.10;99.90;;;;;;5057469;28;20547;-80
2022/07/12 09:16:58;;;;;;;9.65;4.28;;;22.10;99.90;;;;;;5084252;28;20578;-80
2022/07/12 09:19:24;;;;;;;6.72;4.40;;;22.20;99.90;;;;;;5079296;28;20048;-81
2022/07/12 09:21:52;;;;;;;5.57;4.72;;;22.40;99.90;;;;;;5079855;28;20574;-83
2022/07/12 09:24:20;;;;;;;5.13;4.63;;;22.40;99.90;;;;;;5075358;28;20074;-79
2022/07/12 09:26:46;;;;;;;5.88;4.40;;;22.60;99.90;;;;;;5049849;28;20462;-79
2022/07/12 09:29:13;;;;;;;5.60;4.35;;;22.90;99.90;;;;;;5069138;28;20555;-80
2022/07/12 09:36:06;;;;;;;4.75;3.97;;;23.00;99.90;;;;;;5052603;28;20078;-79
2022/07/12 09:37:12;;;;;;;5.32;4.75;;;23.40;99.90;;;;;;5064508;28;20067;-80
2022/07/12 09:39:41;;;;;;;5.82;4.75;;;23.60;99.90;;;;;;5081128;28;20113;-80
2022/07/12 09:42:09;;;;;;;7.70;4.55;;;23.90;99.90;;;;;;5065101;28;20426;-81
2022/07/12 09:44:35;;;;;;;6.53;4.55;;;24.10;99.90;;;;;;5080111;28;20552;-80
2022/07/12 09:47:01;;;;;;;6.13;4.82;;;24.30;99.90;;;;;;5082858;28;20143;-80
2022/07/12 09:49:28;;;;;;;5.28;4.35;;;24.20;99.90;;;;;;5065000;28;20479;-81
2022/07/12 09:51:55;;;;;;;4.63;4.00;;;24.00;99.90;;;;;;5082468;28;20048;-81
2022/07/12 09:54:25;;;;;;;4.85;3.25;;;24.00;99.90;;;;;;5063990;28;20039;-81
2022/07/12 09:56:54;;;;;;;5.20;3.70;;;24.10;99.90;;;;;;5065262;28;20044;-83
2022/07/12 09:59:24;;;;;;;4.05;3.65;;;24.10;99.90;;;;;;5085495;28;20107;-81
2022/07/12 10:01:52;;;;;;;5.18;4.07;;;24.30;99.90;;;;;;5070809;28;20510;-80
2022/07/12 10:04:21;;;;;;;6.05;3.10;;;24.30;99.90;;;;;;5080413;28;20047;-81
2022/07/12 10:06:47;;;;;;;3.75;3.40;;;24.40;99.90;;;;;;5056066;28;20045;-81
2022/07/12 10:09:14;;;;;;;4.20;3.40;;;24.50;99.90;;;;;;5060356;28;20132;-81
2022/07/12 10:11:41;;;;;;;4.57;3.40;;;24.80;99.90;;;;;;5084457;28;20059;-80
2022/07/12 10:14:11;;;;;;;4.20;3.20;;;25.20;99.90;;;;;;5076494;28;20090;-80
2022/07/12 10:16:38;;;;;;;3.50;3.20;;;25.50;99.90;;;;;;5071542;28;20040;-80
2022/07/12 10:19:22;;;;;;;4.43;2.80;;;25.90;99.90;;;;;;5071568;28;20041;-82
2022/07/12 10:21:49;;;;;;;3.92;3.15;;;26.20;99.90;;;;;;5062692;28;20036;-80
2022/07/12 10:24:45;;;;;;;4.30;3.00;;;26.30;99.90;;;;;;5088582;28;20093;-82
2022/07/12 10:27:30;;;;;;;7.82;2.92;;;26.20;99.90;;;;;;5055244;28;20525;-80
2022/07/12 10:30:14;;;;;;;4.15;2.47;;;26.60;99.90;;;;;;5071410;28;20050;-82
2022/07/12 10:32:44;;;;;;;4.38;3.45;;;27.00;99.90;;;;;;5048764;28;20532;-82
2022/07/12 10:35:15;;;;;;;3.25;2.75;;;27.00;99.90;;;;;;5073138;28;20098;-81
2022/07/12 10:37:40;;;;;;;2.47;2.28;;;27.00;99.90;;;;;;5071640;28;20457;-81
2022/07/12 10:40:14;;;;;;;2.90;1.90;;;26.90;99.90;;;;;;5062211;28;20044;-81
2022/07/12 10:42:41;;;;;;;2.90;2.70;;;27.00;99.90;;;;;;5050084;28;20325;-81
2022/07/12 10:45:14;;;;;;;3.53;2.75;;;26.80;99.90;;;;;;5050430;28;20085;-82
2022/07/12 10:47:53;;;;;;;4.05;2.58;;;26.60;99.90;;;;;;5067101;28;20141;-81
2022/07/12 10:50:19;;;;;;;2.75;2.30;;;26.50;99.90;;;;;;5043866;28;20036;-81
2022/07/12 10:52:44;;;;;;;4.75;2.90;;;26.60;99.90;;;;;;5087365;28;20097;-82
2022/07/12 10:55:18;;;;;;;6.13;2.80;;;26.70;99.90;;;;;;5072527;28;20040;-79
2022/07/12 10:57:46;;;;;;;4.00;2.90;;;26.70;99.90;;;;;;5056574;28;20119;-78
2022/07/12 11:00:14;;;;;;;5.68;3.03;;;26.50;99.90;;;;;;5088925;28;20072;-80
2022/07/12 11:02:41;;;;;;;4.78;2.47;;;26.30;99.90;;;;;;5072740;28;20489;-81
2022/07/12 11:05:08;;;;;;;3.70;2.85;;;26.50;99.90;;;;;;5071945;28;20048;-81
2022/07/12 11:07:34;;;;;;;3.50;3.20;;;26.70;99.90;;;;;;5072455;28;20399;-79
2022/07/12 11:10:00;;;;;;;4.60;2.72;;;26.90;99.90;;;;;;5046748;28;20043;-81
2022/07/12 11:12:28;;;;;;;4.82;3.03;;;27.00;99.90;;;;;;5070881;28;20067;-81
2022/07/12 11:14:54;;;;;;;3.65;3.05;;;27.10;99.90;;;;;;5088508;28;20414;-81
2022/07/12 11:17:25;;;;;;;4.13;3.17;;;27.00;99.90;;;;;;5087798;28;20040;-81
2022/07/12 11:20:08;;;;;;;3.40;3.03;;;27.00;99.90;;;;;;5071273;28;20055;-81
2022/07/12 11:22:35;;;;;;;3.25;2.53;;;26.90;99.90;;;;;;5049478;28;20215;-81
2022/07/12 11:25:02;;;;;;;3.53;2.35;;;26.80;99.90;;;;;;5070832;28;20105;-80
2022/07/12 11:27:28;;;;;;;3.55;2.20;;;26.70;99.90;;;;;;5068868;28;20047;-80
2022/07/12 11:29:57;;;;;;;3.15;2.20;;;26.70;99.90;;;;;;5070125;28;20051;-80
2022/07/12 11:32:35;;;;;;;2.63;1.80;;;27.00;99.90;;;;;;5073425;28;20048;-79
2022/07/12 11:35:01;;;;;;;2.95;1.95;;;27.40;99.90;;;;;;5074662;28;20040;-80
2022/07/12 11:37:27;;;;;;;2.67;1.70;;;27.30;98.30;;;;;;5073661;28;20074;-81
2022/07/12 11:39:52;;;;;;;3.92;2.00;;;27.40;99.80;;;;;;5072372;28;20051;-80
2022/07/12 11:42:18;;;;;;;2.90;1.48;;;27.70;99.60;;;;;;5073448;28;20047;-82
2022/07/12 11:44:45;;;;;;;3.75;1.50;;;27.90;99.50;;;;;;5057117;28;20046;-82
2022/07/12 11:47:11;;;;;;;5.63;1.48;;;28.10;99.00;;;;;;5072542;28;20038;-80
2022/07/12 11:49:44;;;;;;;3.42;1.60;;;28.30;99.40;;;;;;5089603;28;20085;-80
2022/07/12 11:52:12;;;;;;;3.55;1.40;;;28.30;98.00;;;;;;5069407;28;20044;-80
2022/07/12 11:54:38;;;;;;;2.72;1.20;;;28.30;97.90;;;;;;5095183;28;20048;-80
2022/07/12 11:57:08;;;;;;;3.42;0.90;;;28.30;98.90;;;;;;5094432;28;20556;-80
2022/07/12 11:59:33;;;;;;;2.38;0.90;;;28.40;98.40;;;;;;5094412;28;20051;-81
2022/07/12 12:02:03;;;;;;;2.78;1.00;;;28.30;97.50;;;;;;5093907;28;20040;-80
2022/07/12 12:04:29;;;;;;;1.67;0.80;;;28.30;95.20;;;;;;5072880;28;20491;-80
2022/07/12 12:06:56;;;;;;;1.10;0.70;;;28.20;94.60;;;;;;5073827;28;20082;-81
2022/07/12 12:09:22;;;;;;;3.17;0.70;;;28.30;95.60;;;;;;5090169;28;20044;-81
2022/07/12 12:11:47;;;;;;;2.05;1.02;;;28.50;96.20;;;;;;5065113;28;20101;-80
2022/07/12 12:14:13;;;;;;;1.45;0.80;;;28.40;95.00;;;;;;5073310;28;20087;-80
2022/07/12 12:16:39;;;;;;;2.78;0.80;;;28.40;94.30;;;;;;5088884;28;20040;-80
2022/07/12 12:19:10;;;;;;;2.25;0.60;;;28.60;95.10;;;;;;5072727;28;20539;-79
2022/07/12 12:21:36;;;;;;;0.88;0.70;;;28.90;95.90;;;;;;5088025;28;20072;-80
2022/07/12 12:24:10;;;;;;;1.70;0.80;;;28.80;94.80;;;;;;5072289;28;20071;-80
2022/07/12 12:26:36;;;;;;;1.75;0.80;;;28.80;96.20;;;;;;5070046;28;20036;-81
2022/07/12 12:29:03;;;;;;;3.03;0.80;;;28.90;96.80;;;;;;5088602;28;20534;-80
2022/07/12 12:31:28;;;;;;;1.38;0.70;;;28.90;94.50;;;;;;5056109;28;20040;-79
2022/07/12 12:33:58;;;;;;;1.98;0.70;;;28.80;92.60;;;;;;5071358;28;20050;-80
2022/07/12 12:36:26;;;;;;;1.50;1.10;;;28.80;93.10;;;;;;5086968;28;20051;-80
2022/07/12 12:38:54;;;;;;;2.28;0.65;;;28.90;92.70;;;;;;5070065;28;20036;-79
2022/07/12 12:41:22;;;;;;;1.33;0.90;;;28.90;94.20;;;;;;5069843;28;20513;-80
2022/07/12 12:43:56;;;;;;;1.80;0.70;;;29.20;93.10;;;;;;5053636;28;20051;-80
2022/07/12 12:46:21;;;;;;;;;;;29.00;92.00;;;;;;5087561;28;20058;-81
2022/07/12 12:48:48;;;;;;;3.20;0.80;;;28.90;92.20;;;;;;5069389;28;19920;-81
2022/07/12 12:51:14;;;;;;;1.92;0.70;;;29.10;92.90;;;;;;5059219;28;20045;-80
2022/07/12 12:53:41;;;;;;;1.42;0.88;;;29.00;92.10;;;;;;5068323;28;20037;-80
2022/07/12 12:56:09;;;;;;;0.82;0.70;;;29.00;92.30;;;;;;5068338;28;20032;-79